createdAt,value
2023-04-30T00:01:26.899Z,12.76
2023-04-30T00:03:53.398Z,12.76
2023-04-30T00:06:20.015Z,12.71
2023-04-30T00:08:46.559Z,12.69
2023-04-30T00:11:13.080Z,12.63
2023-04-30T00:13:39.536Z,12.51
2023-04-30T00:16:06.167Z,12.52
2023-04-30T00:18:32.713Z,12.46
2023-04-30T00:20:59.157Z,12.36
2023-04-30T00:23:25.635Z,12.25
2023-04-30T00:25:52.066Z,12.19
2023-04-30T00:28:18.561Z,12.12
2023-04-30T00:30:45.193Z,12.17
2023-04-30T00:33:11.666Z,12.08
2023-04-30T00:35:38.103Z,12.06
2023-04-30T00:38:04.526Z,11.93
2023-04-30T00:40:33.381Z,11.90
2023-04-30T00:42:59.868Z,11.84
2023-04-30T00:45:26.330Z,11.79
2023-04-30T00:47:53.117Z,11.77
2023-04-30T00:50:19.968Z,11.66
2023-04-30T00:52:46.510Z,11.68
2023-04-30T00:55:13.359Z,11.56
2023-04-30T00:57:40.912Z,11.60
2023-04-30T01:00:11.161Z,11.63
2023-04-30T01:02:38.372Z,11.65
2023-04-30T01:05:05.359Z,11.65
2023-04-30T01:07:33.965Z,11.64
2023-04-30T01:10:01.009Z,11.59
2023-04-30T01:12:50.057Z,11.63
2023-04-30T01:15:42.921Z,11.59
2023-04-30T01:18:28.310Z,11.71
2023-04-30T01:21:01.893Z,11.62
2023-04-30T01:23:40.242Z,11.64
2023-04-30T01:26:24.666Z,11.47
2023-04-30T01:28:53.268Z,11.53
2023-04-30T01:31:20.086Z,11.60
2023-04-30T01:33:46.895Z,11.53
2023-04-30T01:36:38.113Z,11.51
2023-04-30T01:39:13.686Z,11.43
2023-04-30T01:42:06.852Z,11.44
2023-04-30T01:44:51.471Z,11.48
2023-04-30T01:47:53.561Z,11.37
2023-04-30T01:50:26.244Z,11.41
2023-04-30T01:52:56.663Z,11.44
2023-04-30T01:55:37.937Z,11.45
2023-04-30T01:58:11.012Z,11.48
2023-04-30T02:00:37.481Z,11.53
2023-04-30T02:03:04.276Z,11.50
2023-04-30T02:05:31.052Z,11.52
2023-04-30T02:07:57.593Z,11.49
2023-04-30T02:10:26.925Z,11.37
2023-04-30T02:12:53.658Z,11.38
2023-04-30T02:15:20.319Z,11.26
2023-04-30T02:17:46.916Z,11.07
2023-04-30T02:20:13.734Z,11.11
2023-04-30T02:22:40.293Z,11.06
2023-04-30T02:25:12.381Z,11.09
2023-04-30T02:27:38.942Z,10.98
2023-04-30T02:30:08.766Z,11.05
2023-04-30T02:32:35.470Z,10.97
2023-04-30T02:35:02.089Z,10.95
2023-04-30T02:37:28.756Z,10.89
2023-04-30T02:39:55.345Z,11.08
2023-04-30T02:42:22.040Z,11.05
2023-04-30T02:44:48.584Z,10.96
2023-04-30T02:47:15.132Z,10.98
2023-04-30T02:49:41.588Z,11.03
2023-04-30T02:52:09.580Z,10.97
2023-04-30T02:54:36.533Z,11.01
2023-04-30T02:57:03.454Z,10.96
2023-04-30T02:59:29.940Z,11.07
2023-04-30T03:01:56.347Z,11.03
2023-04-30T03:04:22.843Z,10.92
2023-04-30T03:06:49.271Z,10.96
2023-04-30T03:09:15.835Z,10.97
2023-04-30T03:11:42.359Z,10.89
2023-04-30T03:14:12.310Z,10.92
2023-04-30T03:16:38.894Z,10.98
2023-04-30T03:19:05.859Z,10.93
2023-04-30T03:21:32.635Z,11.01
2023-04-30T03:23:59.171Z,10.95
2023-04-30T03:26:25.795Z,10.70
2023-04-30T03:28:52.261Z,10.61
2023-04-30T03:31:18.951Z,10.43
2023-04-30T03:33:45.496Z,10.41
2023-04-30T03:36:12.768Z,10.38
2023-04-30T03:38:39.192Z,10.37
2023-04-30T03:41:05.668Z,10.49
2023-04-30T03:43:32.154Z,10.53
2023-04-30T03:45:58.813Z,10.50
2023-04-30T03:48:25.494Z,10.46
2023-04-30T03:50:52.003Z,10.36
2023-04-30T03:53:18.549Z,10.55
2023-04-30T03:55:45.382Z,10.40
2023-04-30T03:58:14.002Z,10.33
2023-04-30T04:00:43.770Z,10.31
2023-04-30T04:03:10.313Z,10.31
2023-04-30T04:05:36.823Z,10.24
2023-04-30T04:08:03.322Z,10.23
2023-04-30T04:10:29.855Z,10.12
2023-04-30T04:12:56.383Z,9.97
2023-04-30T04:15:22.889Z,9.90
2023-04-30T04:17:49.371Z,9.84
2023-04-30T04:20:15.968Z,9.73
2023-04-30T04:22:42.668Z,9.85
2023-04-30T04:25:09.779Z,9.85
2023-04-30T04:27:36.267Z,9.84
2023-04-30T04:30:03.307Z,9.83
2023-04-30T04:32:30.642Z,9.78
2023-04-30T04:34:57.169Z,9.84
2023-04-30T04:37:23.715Z,9.90
2023-04-30T04:39:51.394Z,10.00
2023-04-30T04:42:18.044Z,9.91
2023-04-30T04:44:47.042Z,9.87
2023-04-30T04:47:13.562Z,9.89
2023-04-30T04:49:40.106Z,9.73
2023-04-30T04:52:06.626Z,9.64
2023-04-30T04:54:33.569Z,9.43
2023-04-30T04:57:00.061Z,9.46
2023-04-30T04:59:26.665Z,9.54
2023-04-30T05:01:56.959Z,9.60
2023-04-30T05:04:23.470Z,9.57
2023-04-30T05:06:49.906Z,9.63
2023-04-30T05:09:19.648Z,9.71
2023-04-30T05:11:49.072Z,9.69
2023-04-30T05:14:17.479Z,9.81
2023-04-30T05:16:44.194Z,9.79
2023-04-30T05:19:10.767Z,9.93
2023-04-30T05:21:37.304Z,10.06
2023-04-30T05:24:05.166Z,10.10
2023-04-30T05:26:31.717Z,10.12
2023-04-30T05:28:58.252Z,10.16
2023-04-30T05:31:24.703Z,10.33
2023-04-30T05:33:51.128Z,10.32
2023-04-30T05:36:17.700Z,10.35
2023-04-30T05:38:44.125Z,10.39
2023-04-30T05:41:12.567Z,10.64
2023-04-30T05:43:39.066Z,10.66
2023-04-30T05:46:05.836Z,10.76
2023-04-30T05:48:32.312Z,10.99
2023-04-30T05:50:58.812Z,11.02
2023-04-30T05:53:25.716Z,11.17
2023-04-30T05:55:52.230Z,11.01
2023-04-30T05:58:18.751Z,11.20
2023-04-30T06:00:49.384Z,11.20
2023-04-30T06:03:19.531Z,11.16
2023-04-30T06:05:48.811Z,11.23
2023-04-30T06:08:16.662Z,11.23
2023-04-30T06:10:43.228Z,11.35
2023-04-30T06:13:09.729Z,11.33
2023-04-30T06:15:36.312Z,11.35
2023-04-30T06:18:03.124Z,11.38
2023-04-30T06:20:29.949Z,11.42
2023-04-30T06:22:56.415Z,11.51
2023-04-30T06:25:23.004Z,11.64
2023-04-30T06:27:51.885Z,11.73
2023-04-30T06:30:18.550Z,11.97
2023-04-30T06:32:46.707Z,12.12
2023-04-30T06:35:13.482Z,12.18
2023-04-30T06:37:40.580Z,12.26
2023-04-30T06:40:07.873Z,12.14
2023-04-30T06:42:36.057Z,12.16
2023-04-30T06:45:04.027Z,12.34
2023-04-30T06:47:42.832Z,12.50
2023-04-30T06:50:09.687Z,12.65
2023-04-30T06:52:36.154Z,12.80
2023-04-30T06:55:02.809Z,12.97
2023-04-30T06:57:29.318Z,13.04
2023-04-30T06:59:56.730Z,12.94
2023-04-30T07:02:23.517Z,12.88
2023-04-30T07:04:50.042Z,12.87
2023-04-30T07:07:18.171Z,12.95
2023-04-30T07:09:44.933Z,12.95
2023-04-30T07:12:13.646Z,13.01
2023-04-30T07:14:40.308Z,13.09
2023-04-30T07:17:06.944Z,13.25
2023-04-30T07:19:33.584Z,13.45
2023-04-30T07:22:00.090Z,13.60
2023-04-30T07:24:26.585Z,13.71
2023-04-30T07:26:53.092Z,13.70
2023-04-30T07:29:19.648Z,13.81
2023-04-30T07:31:48.127Z,13.88
2023-04-30T07:34:15.006Z,13.95
2023-04-30T07:36:41.860Z,14.13
2023-04-30T07:39:08.565Z,14.00
2023-04-30T07:41:35.398Z,14.15
2023-04-30T07:44:02.475Z,14.28
2023-04-30T07:46:29.160Z,14.20
2023-04-30T07:48:56.219Z,14.25
2023-04-30T07:51:23.224Z,14.42
2023-04-30T07:53:50.015Z,14.52
2023-04-30T07:56:18.899Z,14.63
2023-04-30T07:58:49.000Z,14.62
2023-04-30T08:01:17.760Z,14.69
2023-04-30T08:03:44.610Z,14.81
2023-04-30T08:06:11.299Z,14.67
2023-04-30T08:08:38.082Z,14.67
2023-04-30T08:11:04.584Z,14.82
2023-04-30T08:13:31.081Z,15.06
2023-04-30T08:15:57.589Z,15.36
2023-04-30T08:18:24.089Z,15.47
2023-04-30T08:20:50.577Z,15.65
2023-04-30T08:23:18.243Z,15.63
2023-04-30T08:25:44.737Z,15.53
2023-04-30T08:28:11.189Z,15.59
2023-04-30T08:30:38.028Z,15.68
2023-04-30T08:33:04.880Z,15.87
2023-04-30T08:35:32.187Z,16.11
2023-04-30T08:38:01.412Z,16.38
2023-04-30T08:40:49.154Z,16.58
2023-04-30T08:43:16.559Z,16.71
2023-04-30T08:45:44.527Z,16.66
2023-04-30T08:48:12.352Z,16.56
2023-04-30T08:50:38.926Z,16.40
2023-04-30T08:53:07.780Z,16.53
2023-04-30T08:55:35.100Z,16.72
2023-04-30T08:58:01.626Z,16.62
2023-04-30T09:00:28.367Z,16.44
2023-04-30T09:02:55.106Z,16.30
2023-04-30T09:05:21.727Z,16.02
2023-04-30T09:08:01.569Z,15.66
2023-04-30T09:10:33.139Z,15.26
2023-04-30T09:13:05.129Z,15.04
2023-04-30T09:15:32.959Z,15.20
2023-04-30T09:18:12.150Z,15.61
2023-04-30T09:20:57.775Z,16.03
2023-04-30T09:23:25.074Z,16.17
2023-04-30T09:25:51.636Z,16.46
2023-04-30T09:28:25.303Z,17.06
2023-04-30T09:30:52.704Z,17.25
2023-04-30T09:33:19.611Z,17.42
2023-04-30T09:35:49.947Z,17.46
2023-04-30T09:38:33.120Z,17.59
2023-04-30T09:41:01.085Z,17.51
2023-04-30T09:43:28.710Z,17.36
2023-04-30T09:45:57.721Z,17.14
2023-04-30T09:48:28.037Z,16.61
2023-04-30T09:50:54.523Z,16.36
2023-04-30T09:53:21.607Z,16.77
2023-04-30T09:55:52.030Z,17.24
2023-04-30T09:58:19.626Z,17.30
2023-04-30T10:00:50.790Z,17.24
2023-04-30T10:03:22.906Z,17.02
2023-04-30T10:05:53.086Z,16.92
2023-04-30T10:08:32.089Z,16.81
2023-04-30T10:11:03.141Z,16.65
2023-04-30T10:13:32.553Z,16.39
2023-04-30T10:16:01.491Z,16.60
2023-04-30T10:18:31.242Z,17.31
2023-04-30T10:21:03.047Z,18.39
2023-04-30T10:23:30.346Z,18.63
2023-04-30T10:25:57.721Z,18.53
2023-04-30T10:28:25.857Z,18.17
2023-04-30T10:30:52.684Z,17.12
2023-04-30T10:33:28.677Z,16.59
2023-04-30T10:36:04.289Z,16.66
2023-04-30T10:38:32.513Z,16.34
2023-04-30T10:41:01.258Z,16.18
2023-04-30T10:43:30.348Z,16.36
2023-04-30T10:46:00.546Z,16.53
2023-04-30T10:48:27.569Z,16.71
2023-04-30T10:51:00.702Z,17.05
2023-04-30T10:53:31.312Z,17.37
2023-04-30T10:56:06.869Z,17.60
2023-04-30T10:58:35.706Z,17.80
2023-04-30T11:01:19.412Z,18.03
2023-04-30T11:04:08.570Z,18.24
2023-04-30T11:07:00.773Z,18.27
2023-04-30T11:09:41.229Z,17.90
2023-04-30T11:12:13.292Z,17.59
2023-04-30T11:14:45.381Z,17.62
2023-04-30T11:17:13.969Z,17.58
2023-04-30T11:19:51.005Z,18.25
2023-04-30T11:22:24.964Z,19.39
2023-04-30T11:25:00.869Z,20.07
2023-04-30T11:27:29.312Z,21.00
2023-04-30T11:29:57.089Z,22.11
2023-04-30T11:32:26.099Z,22.01
2023-04-30T11:34:53.978Z,22.09
2023-04-30T11:37:29.810Z,21.72
2023-04-30T11:39:57.591Z,21.05
2023-04-30T11:42:24.054Z,21.62
2023-04-30T11:44:50.526Z,21.98
2023-04-30T11:47:19.810Z,21.62
2023-04-30T11:49:47.897Z,20.83
2023-04-30T11:52:14.527Z,19.90
2023-04-30T11:54:41.176Z,20.34
2023-04-30T11:57:07.642Z,21.41
2023-04-30T11:59:43.927Z,22.69
2023-04-30T12:02:18.714Z,23.07
2023-04-30T12:04:45.320Z,22.77
2023-04-30T12:07:11.897Z,22.89
2023-04-30T12:09:57.367Z,21.53
2023-04-30T12:12:30.564Z,20.40
2023-04-30T12:14:57.608Z,21.09
2023-04-30T12:17:32.606Z,22.26
2023-04-30T12:19:59.398Z,23.44
2023-04-30T12:22:26.202Z,24.43
2023-04-30T12:24:52.710Z,23.63
2023-04-30T12:27:19.245Z,22.65
2023-04-30T12:29:47.594Z,23.13
2023-04-30T12:32:18.594Z,24.20
2023-04-30T12:34:45.377Z,23.63
2023-04-30T12:37:15.680Z,22.43
2023-04-30T12:39:42.195Z,21.59
2023-04-30T12:42:08.975Z,20.96
2023-04-30T12:44:44.708Z,21.35
2023-04-30T12:47:11.626Z,22.30
2023-04-30T12:49:38.351Z,21.74
2023-04-30T12:52:08.560Z,21.18
2023-04-30T12:54:39.486Z,21.78
2023-04-30T12:57:11.974Z,21.54
2023-04-30T12:59:40.462Z,22.27
2023-04-30T13:02:11.719Z,23.12
2023-04-30T13:04:39.427Z,23.83
2023-04-30T13:07:06.259Z,23.03
2023-04-30T13:09:34.623Z,22.87
2023-04-30T13:12:01.787Z,23.03
2023-04-30T13:14:28.417Z,23.89
2023-04-30T13:16:55.545Z,24.57
2023-04-30T13:19:22.084Z,24.91
2023-04-30T13:21:51.513Z,25.43
2023-04-30T13:24:22.324Z,24.72
2023-04-30T13:26:52.878Z,24.74
2023-04-30T13:29:22.814Z,24.62
2023-04-30T13:31:51.689Z,25.08
2023-04-30T13:34:21.400Z,23.78
2023-04-30T13:36:49.969Z,23.06
2023-04-30T13:39:16.470Z,23.09
2023-04-30T13:41:42.984Z,23.83
2023-04-30T13:44:09.524Z,24.18
2023-04-30T13:46:36.118Z,24.99
2023-04-30T13:49:02.794Z,24.83
2023-04-30T13:51:29.251Z,25.20
2023-04-30T13:53:55.738Z,25.08
2023-04-30T13:56:22.267Z,25.07
2023-04-30T13:58:52.033Z,25.60
2023-04-30T14:01:21.100Z,25.09
2023-04-30T14:03:50.420Z,24.40
2023-04-30T14:06:17.497Z,23.77
2023-04-30T14:08:44.126Z,23.30
2023-04-30T14:11:10.629Z,23.14
2023-04-30T14:13:37.182Z,22.72
2023-04-30T14:16:03.966Z,22.46
2023-04-30T14:18:30.837Z,22.23
2023-04-30T14:20:57.270Z,21.92
2023-04-30T14:23:23.799Z,21.79
2023-04-30T14:25:50.668Z,21.98
2023-04-30T14:28:17.917Z,21.97
2023-04-30T14:30:44.495Z,22.11
2023-04-30T14:33:12.470Z,22.01
2023-04-30T14:35:39.599Z,21.70
2023-04-30T14:38:06.028Z,21.48
2023-04-30T14:40:32.542Z,21.34
2023-04-30T14:42:59.030Z,21.27
2023-04-30T14:45:28.145Z,20.55
2023-04-30T14:47:54.690Z,20.44
2023-04-30T14:50:21.277Z,20.57
2023-04-30T14:52:48.775Z,20.43
2023-04-30T14:55:15.190Z,20.33
2023-04-30T14:57:41.666Z,19.98
2023-04-30T15:00:09.962Z,19.85
2023-04-30T15:02:36.561Z,19.47
2023-04-30T15:05:05.233Z,19.57
2023-04-30T15:07:31.713Z,19.66
2023-04-30T15:09:58.384Z,19.66
2023-04-30T15:12:25.013Z,19.84
2023-04-30T15:14:51.531Z,19.90
2023-04-30T15:17:20.387Z,19.81
2023-04-30T15:19:46.990Z,19.80
2023-04-30T15:22:14.022Z,19.80
2023-04-30T15:24:40.480Z,19.84
2023-04-30T15:27:07.061Z,19.97
2023-04-30T15:29:33.790Z,20.05
2023-04-30T15:32:00.411Z,19.94
2023-04-30T15:34:27.035Z,19.96
2023-04-30T15:36:54.197Z,19.42
2023-04-30T15:39:21.726Z,19.50
2023-04-30T15:41:50.370Z,19.31
2023-04-30T15:44:21.113Z,19.34
2023-04-30T15:46:50.348Z,19.03
2023-04-30T15:49:16.861Z,19.05
2023-04-30T15:51:43.334Z,19.00
2023-04-30T15:54:11.377Z,19.07
2023-04-30T15:56:37.872Z,19.20
2023-04-30T15:59:04.303Z,19.08
2023-04-30T16:01:30.852Z,18.68
2023-04-30T16:03:57.609Z,18.40
2023-04-30T16:06:24.475Z,18.41
2023-04-30T16:08:51.138Z,18.31
2023-04-30T16:11:20.155Z,18.25
2023-04-30T16:13:47.192Z,18.51
2023-04-30T16:16:14.623Z,18.70
2023-04-30T16:18:41.201Z,18.79
2023-04-30T16:21:09.273Z,18.68
2023-04-30T16:23:36.723Z,18.53
2023-04-30T16:26:03.286Z,18.83
2023-04-30T16:28:29.778Z,18.96
2023-04-30T16:30:56.312Z,19.19
2023-04-30T16:33:24.931Z,19.34
2023-04-30T16:35:51.565Z,19.50
2023-04-30T16:38:20.077Z,19.42
2023-04-30T16:40:46.594Z,19.15
2023-04-30T16:43:13.137Z,18.93
2023-04-30T16:45:39.941Z,19.15
2023-04-30T16:48:07.008Z,18.98
2023-04-30T16:50:33.574Z,18.96
2023-04-30T16:53:00.005Z,19.01
2023-04-30T16:55:27.504Z,18.78
2023-04-30T16:57:54.117Z,18.71
2023-04-30T17:00:20.835Z,18.72
2023-04-30T17:02:53.638Z,18.87
2023-04-30T17:05:21.376Z,19.01
2023-04-30T17:07:52.395Z,18.67
2023-04-30T17:10:21.744Z,18.41
2023-04-30T17:12:48.661Z,18.21
2023-04-30T17:15:15.479Z,18.07
2023-04-30T17:17:42.384Z,17.84
2023-04-30T17:20:09.640Z,17.71
2023-04-30T17:22:38.733Z,17.80
2023-04-30T17:25:05.825Z,17.73
2023-04-30T17:27:32.565Z,17.61
2023-04-30T17:29:59.507Z,17.63
2023-04-30T17:32:26.613Z,17.36
2023-04-30T17:34:53.753Z,17.11
2023-04-30T17:37:24.246Z,16.96
2023-04-30T17:39:54.138Z,17.02
2023-04-30T17:42:23.693Z,17.07
2023-04-30T17:44:52.311Z,17.22
2023-04-30T17:47:19.126Z,17.10
2023-04-30T17:49:45.603Z,16.97
2023-04-30T17:52:16.094Z,16.86
2023-04-30T17:54:43.235Z,16.79
2023-04-30T17:57:10.024Z,16.85
2023-04-30T17:59:39.555Z,16.93
2023-04-30T18:02:07.523Z,16.88
2023-04-30T18:04:34.795Z,16.82
2023-04-30T18:07:01.605Z,16.69
2023-04-30T18:09:28.111Z,16.71
2023-04-30T18:11:55.364Z,16.55
2023-04-30T18:14:24.866Z,16.49
2023-04-30T18:16:55.091Z,16.40
2023-04-30T18:19:24.790Z,16.34
2023-04-30T18:21:56.932Z,16.31
2023-04-30T18:24:28.492Z,16.20
2023-04-30T18:26:58.113Z,16.06
2023-04-30T18:29:24.737Z,15.91
2023-04-30T18:31:53.159Z,15.94
2023-04-30T18:34:19.714Z,15.82
2023-04-30T18:36:46.139Z,15.71
2023-04-30T18:39:12.638Z,15.58
2023-04-30T18:41:39.424Z,15.33
2023-04-30T18:44:06.900Z,15.31
2023-04-30T18:46:33.596Z,15.24
2023-04-30T18:49:00.105Z,15.06
2023-04-30T18:51:26.589Z,15.13
2023-04-30T18:53:57.222Z,15.02
2023-04-30T18:56:26.707Z,14.90
2023-04-30T18:58:56.011Z,14.93
2023-04-30T19:01:27.280Z,14.84
2023-04-30T19:03:54.226Z,14.87
2023-04-30T19:06:20.895Z,14.87
2023-04-30T19:08:47.913Z,14.78
2023-04-30T19:11:14.406Z,14.86
2023-04-30T19:13:40.937Z,14.85
2023-04-30T19:16:07.572Z,14.84
2023-04-30T19:18:35.175Z,14.93
2023-04-30T19:21:02.393Z,14.99
2023-04-30T19:23:32.380Z,14.96
2023-04-30T19:25:59.738Z,14.89
2023-04-30T19:28:26.612Z,14.84
2023-04-30T19:30:57.505Z,14.86
2023-04-30T19:33:28.324Z,14.86
2023-04-30T19:35:55.156Z,14.93
2023-04-30T19:38:24.244Z,14.99
2023-04-30T19:40:53.788Z,15.00
2023-04-30T19:43:23.838Z,14.87
2023-04-30T19:45:59.735Z,14.91
2023-04-30T19:48:26.766Z,14.81
2023-04-30T19:50:54.995Z,14.69
2023-04-30T19:53:24.182Z,14.70
2023-04-30T19:55:54.284Z,14.71
2023-04-30T19:58:20.862Z,14.69
2023-04-30T20:00:53.389Z,14.48
2023-04-30T20:03:20.587Z,14.71
2023-04-30T20:05:47.368Z,14.66
2023-04-30T20:08:13.867Z,14.68
2023-04-30T20:10:41.512Z,14.60
2023-04-30T20:13:09.341Z,14.55
2023-04-30T20:15:35.909Z,14.58
2023-04-30T20:18:02.426Z,14.41
2023-04-30T20:20:31.652Z,14.50
2023-04-30T20:22:58.189Z,14.39
2023-04-30T20:25:31.202Z,14.38
2023-04-30T20:27:57.707Z,14.32
2023-04-30T20:30:24.877Z,14.34
2023-04-30T20:32:55.021Z,14.26
2023-04-30T20:35:24.282Z,14.19
2023-04-30T20:37:54.726Z,14.21
2023-04-30T20:40:23.967Z,14.08
2023-04-30T20:42:54.169Z,14.10
2023-04-30T20:45:21.068Z,14.13
2023-04-30T20:47:47.722Z,14.07
2023-04-30T20:50:15.282Z,14.05
2023-04-30T20:52:41.728Z,14.10
2023-04-30T20:55:08.724Z,13.98
2023-04-30T20:57:36.299Z,13.86
2023-04-30T21:00:04.971Z,13.88
2023-04-30T21:02:31.546Z,13.87
2023-04-30T21:05:04.420Z,13.87
2023-04-30T21:07:33.431Z,13.84
2023-04-30T21:10:01.252Z,13.61
2023-04-30T21:12:28.456Z,13.71
2023-04-30T21:14:59.663Z,13.68
2023-04-30T21:17:26.326Z,13.61
2023-04-30T21:19:55.892Z,13.50
2023-04-30T21:22:29.835Z,13.47
2023-04-30T21:24:57.097Z,13.42
2023-04-30T21:27:24.817Z,13.36
2023-04-30T21:29:51.314Z,13.23
2023-04-30T21:32:17.861Z,13.18
2023-04-30T21:34:44.656Z,13.10
2023-04-30T21:37:11.117Z,13.07
2023-04-30T21:39:37.673Z,13.03
2023-04-30T21:42:04.632Z,13.09
2023-04-30T21:44:32.776Z,13.00
2023-04-30T21:46:59.600Z,12.88
2023-04-30T21:49:29.106Z,12.92
2023-04-30T21:51:59.769Z,12.93
2023-04-30T21:54:30.011Z,12.77
2023-04-30T21:57:01.001Z,12.80
2023-04-30T21:59:28.313Z,12.83
2023-04-30T22:01:57.081Z,12.67
2023-04-30T22:04:28.362Z,12.70
2023-04-30T22:06:54.990Z,12.59
2023-04-30T22:09:21.441Z,12.60
2023-04-30T22:11:49.433Z,12.64
2023-04-30T22:14:16.307Z,12.59
2023-04-30T22:16:43.028Z,12.57
2023-04-30T22:19:09.506Z,12.49
2023-04-30T22:21:36.236Z,12.37
2023-04-30T22:24:02.709Z,12.30
2023-04-30T22:26:29.641Z,12.32
2023-04-30T22:28:59.225Z,12.32
2023-04-30T22:31:26.247Z,12.32
2023-04-30T22:33:52.705Z,12.33
2023-04-30T22:36:19.141Z,12.30
2023-04-30T22:38:45.716Z,12.26
2023-04-30T22:41:12.395Z,12.35
2023-04-30T22:43:38.984Z,12.28
2023-04-30T22:46:05.637Z,12.16
2023-04-30T22:48:33.189Z,12.08
2023-04-30T22:51:00.730Z,12.21
2023-04-30T22:53:30.598Z,12.22
2023-04-30T22:55:57.188Z,12.13
2023-04-30T22:58:23.654Z,12.22
2023-04-30T23:00:50.206Z,12.23
2023-04-30T23:03:17.250Z,12.32
2023-04-30T23:05:44.054Z,12.43
2023-04-30T23:08:10.741Z,12.25
2023-04-30T23:10:37.253Z,12.24
2023-04-30T23:13:03.687Z,12.14
2023-04-30T23:15:33.353Z,12.02
2023-04-30T23:18:02.174Z,11.91
2023-04-30T23:20:28.708Z,11.77
2023-04-30T23:22:56.107Z,11.68
2023-04-30T23:25:22.840Z,11.69
2023-04-30T23:27:49.261Z,11.49
2023-04-30T23:30:15.770Z,11.45
2023-04-30T23:32:42.639Z,11.40
2023-04-30T23:35:09.372Z,11.36
2023-04-30T23:37:36.035Z,11.50
2023-04-30T23:40:07.431Z,11.35
2023-04-30T23:42:34.690Z,11.42
2023-04-30T23:45:04.892Z,11.41
2023-04-30T23:47:32.732Z,11.21
2023-04-30T23:49:59.205Z,11.08
2023-04-30T23:52:25.663Z,10.95
2023-04-30T23:54:52.145Z,10.89
2023-04-30T23:57:18.621Z,10.86
2023-04-30T23:59:45.349Z,10.84
